sensor_id;sensor_type;location;lat;lon;timestamp;P1;durP1;ratioP1;P2;durP2;ratioP2
71202;SDS011;58929;47.490;19.090;2023-04-01T00:02:20;6.75;;;2.80;;
71202;SDS011;58929;47.490;19.090;2023-04-01T00:04:51;2.63;;;1.70;;
71202;SDS011;58929;47.490;19.090;2023-04-01T00:07:19;8.43;;;2.53;;
71202;SDS011;58929;47.490;19.090;2023-04-01T00:09:47;4.45;;;2.53;;
71202;SDS011;58929;47.490;19.090;2023-04-01T00:12:16;4.15;;;2.33;;
71202;SDS011;58929;47.490;19.090;2023-04-01T00:14:44;4.60;;;2.20;;
71202;SDS011;58929;47.490;19.090;2023-04-01T00:17:12;5.13;;;2.05;;
71202;SDS011;58929;47.490;19.090;2023-04-01T00:19:40;4.32;;;2.78;;
71202;SDS011;58929;47.490;19.090;2023-04-01T00:22:09;3.50;;;2.10;;
71202;SDS011;58929;47.490;19.090;2023-04-01T00:24:38;7.22;;;2.90;;
71202;SDS011;58929;47.490;19.090;2023-04-01T00:27:06;4.60;;;2.38;;
71202;SDS011;58929;47.490;19.090;2023-04-01T00:29:36;6.82;;;2.53;;
71202;SDS011;58929;47.490;19.090;2023-04-01T00:32:04;9.25;;;2.72;;
71202;SDS011;58929;47.490;19.090;2023-04-01T00:34:32;5.93;;;2.65;;
71202;SDS011;58929;47.490;19.090;2023-04-01T00:37:00;5.70;;;2.60;;
71202;SDS011;58929;47.490;19.090;2023-04-01T00:39:28;9.25;;;3.05;;
71202;SDS011;58929;47.490;19.090;2023-04-01T00:41:56;11.68;;;3.38;;
71202;SDS011;58929;47.490;19.090;2023-04-01T00:44:25;4.75;;;2.60;;
71202;SDS011;58929;47.490;19.090;2023-04-01T00:46:55;4.47;;;2.88;;
71202;SDS011;58929;47.490;19.090;2023-04-01T00:49:23;5.95;;;3.05;;
71202;SDS011;58929;47.490;19.090;2023-04-01T00:51:53;7.45;;;2.90;;
71202;SDS011;58929;47.490;19.090;2023-04-01T00:54:22;3.78;;;2.92;;
71202;SDS011;58929;47.490;19.090;2023-04-01T00:56:52;9.82;;;3.22;;
71202;SDS011;58929;47.490;19.090;2023-04-01T00:59:23;5.72;;;2.72;;
71202;SDS011;58929;47.490;19.090;2023-04-01T01:01:52;4.07;;;2.78;;
71202;SDS011;58929;47.490;19.090;2023-04-01T01:04:23;5.70;;;2.55;;
71202;SDS011;58929;47.490;19.090;2023-04-01T01:06:55;2.83;;;2.00;;
71202;SDS011;58929;47.490;19.090;2023-04-01T01:09:26;4.22;;;2.22;;
71202;SDS011;58929;47.490;19.090;2023-04-01T01:11:59;3.97;;;2.40;;
71202;SDS011;58929;47.490;19.090;2023-04-01T01:14:33;2.55;;;1.83;;
71202;SDS011;58929;47.490;19.090;2023-04-01T01:17:06;5.10;;;2.28;;
71202;SDS011;58929;47.490;19.090;2023-04-01T01:19:44;4.72;;;1.83;;
71202;SDS011;58929;47.490;19.090;2023-04-01T01:22:22;3.85;;;1.75;;
71202;SDS011;58929;47.490;19.090;2023-04-01T01:24:54;6.40;;;1.98;;
71202;SDS011;58929;47.490;19.090;2023-04-01T01:27:24;4.03;;;1.70;;
71202;SDS011;58929;47.490;19.090;2023-04-01T01:32:52;3.38;;;1.60;;
71202;SDS011;58929;47.490;19.090;2023-04-01T01:35:26;3.00;;;1.40;;
71202;SDS011;58929;47.490;19.090;2023-04-01T01:37:56;3.40;;;1.90;;
71202;SDS011;58929;47.490;19.090;2023-04-01T01:40:27;3.90;;;1.75;;
71202;SDS011;58929;47.490;19.090;2023-04-01T01:42:56;2.80;;;1.45;;
71202;SDS011;58929;47.490;19.090;2023-04-01T01:45:26;3.70;;;1.80;;
71202;SDS011;58929;47.490;19.090;2023-04-01T01:47:54;4.32;;;2.42;;
71202;SDS011;58929;47.490;19.090;2023-04-01T01:50:23;3.15;;;1.75;;
71202;SDS011;58929;47.490;19.090;2023-04-01T01:53:00;3.83;;;2.20;;
71202;SDS011;58929;47.490;19.090;2023-04-01T01:55:29;5.30;;;1.85;;
71202;SDS011;58929;47.490;19.090;2023-04-01T01:57:58;5.93;;;2.33;;
71202;SDS011;58929;47.490;19.090;2023-04-01T02:00:27;4.50;;;1.83;;
71202;SDS011;58929;47.490;19.090;2023-04-01T02:02:57;2.10;;;1.50;;
71202;SDS011;58929;47.490;19.090;2023-04-01T02:05:26;4.63;;;2.00;;
71202;SDS011;58929;47.490;19.090;2023-04-01T02:08:07;4.97;;;1.63;;
71202;SDS011;58929;47.490;19.090;2023-04-01T02:10:36;2.72;;;1.90;;
71202;SDS011;58929;47.490;19.090;2023-04-01T02:13:07;2.90;;;1.77;;
71202;SDS011;58929;47.490;19.090;2023-04-01T02:15:40;5.55;;;1.98;;
71202;SDS011;58929;47.490;19.090;2023-04-01T02:18:09;3.67;;;1.70;;
71202;SDS011;58929;47.490;19.090;2023-04-01T02:20:38;3.15;;;1.48;;
71202;SDS011;58929;47.490;19.090;2023-04-01T02:23:09;1.80;;;1.27;;
71202;SDS011;58929;47.490;19.090;2023-04-01T02:25:38;3.35;;;1.73;;
71202;SDS011;58929;47.490;19.090;2023-04-01T02:28:08;3.00;;;1.50;;
71202;SDS011;58929;47.490;19.090;2023-04-01T02:30:38;3.35;;;1.50;;
71202;SDS011;58929;47.490;19.090;2023-04-01T02:33:06;2.47;;;1.52;;
71202;SDS011;58929;47.490;19.090;2023-04-01T02:35:35;3.72;;;1.25;;
71202;SDS011;58929;47.490;19.090;2023-04-01T02:38:06;4.15;;;1.20;;
71202;SDS011;58929;47.490;19.090;2023-04-01T02:40:43;2.28;;;1.50;;
71202;SDS011;58929;47.490;19.090;2023-04-01T02:43:12;2.65;;;1.10;;
71202;SDS011;58929;47.490;19.090;2023-04-01T02:45:40;5.03;;;1.70;;
71202;SDS011;58929;47.490;19.090;2023-04-01T02:48:08;3.22;;;1.05;;
71202;SDS011;58929;47.490;19.090;2023-04-01T02:50:36;3.25;;;1.23;;
71202;SDS011;58929;47.490;19.090;2023-04-01T02:53:04;2.20;;;1.30;;
71202;SDS011;58929;47.490;19.090;2023-04-01T02:55:33;2.22;;;0.98;;
71202;SDS011;58929;47.490;19.090;2023-04-01T02:58:02;4.40;;;1.27;;
71202;SDS011;58929;47.490;19.090;2023-04-01T03:00:31;4.18;;;1.20;;
71202;SDS011;58929;47.490;19.090;2023-04-01T03:02:59;2.80;;;1.10;;
71202;SDS011;58929;47.490;19.090;2023-04-01T03:05:28;3.70;;;1.23;;
71202;SDS011;58929;47.490;19.090;2023-04-01T03:07:56;2.67;;;1.02;;
71202;SDS011;58929;47.490;19.090;2023-04-01T03:10:24;1.02;;;0.90;;
71202;SDS011;58929;47.490;19.090;2023-04-01T03:12:52;5.10;;;1.35;;
71202;SDS011;58929;47.490;19.090;2023-04-01T03:15:22;2.92;;;0.98;;
71202;SDS011;58929;47.490;19.090;2023-04-01T03:17:53;2.60;;;1.30;;
71202;SDS011;58929;47.490;19.090;2023-04-01T03:20:21;3.65;;;1.30;;
71202;SDS011;58929;47.490;19.090;2023-04-01T03:22:49;1.42;;;1.00;;
71202;SDS011;58929;47.490;19.090;2023-04-01T03:25:17;3.38;;;1.30;;
71202;SDS011;58929;47.490;19.090;2023-04-01T03:27:45;2.55;;;1.02;;
71202;SDS011;58929;47.490;19.090;2023-04-01T03:30:13;2.25;;;1.02;;
71202;SDS011;58929;47.490;19.090;2023-04-01T03:32:50;1.83;;;1.02;;
71202;SDS011;58929;47.490;19.090;2023-04-01T03:35:18;1.63;;;1.30;;
71202;SDS011;58929;47.490;19.090;2023-04-01T03:37:46;2.05;;;1.00;;
71202;SDS011;58929;47.490;19.090;2023-04-01T03:40:14;2.15;;;1.27;;
71202;SDS011;58929;47.490;19.090;2023-04-01T03:42:42;2.33;;;1.00;;
71202;SDS011;58929;47.490;19.090;2023-04-01T03:45:11;2.85;;;1.25;;
71202;SDS011;58929;47.490;19.090;2023-04-01T03:47:39;2.25;;;1.35;;
71202;SDS011;58929;47.490;19.090;2023-04-01T03:50:10;1.65;;;1.00;;
71202;SDS011;58929;47.490;19.090;2023-04-01T03:52:38;2.10;;;1.05;;
71202;SDS011;58929;47.490;19.090;2023-04-01T03:55:07;1.92;;;1.25;;
71202;SDS011;58929;47.490;19.090;2023-04-01T03:57:37;4.93;;;1.05;;
71202;SDS011;58929;47.490;19.090;2023-04-01T04:00:14;1.83;;;1.40;;
71202;SDS011;58929;47.490;19.090;2023-04-01T04:02:45;2.80;;;1.48;;
71202;SDS011;58929;47.490;19.090;2023-04-01T04:05:20;1.63;;;1.00;;
71202;SDS011;58929;47.490;19.090;2023-04-01T04:07:48;1.80;;;1.20;;
71202;SDS011;58929;47.490;19.090;2023-04-01T04:10:16;1.38;;;0.95;;
71202;SDS011;58929;47.490;19.090;2023-04-01T04:12:44;3.22;;;1.50;;
71202;SDS011;58929;47.490;19.090;2023-04-01T04:15:12;2.88;;;1.05;;
71202;SDS011;58929;47.490;19.090;2023-04-01T04:17:40;3.00;;;1.65;;
71202;SDS011;58929;47.490;19.090;2023-04-01T04:20:08;3.08;;;1.92;;
71202;SDS011;58929;47.490;19.090;2023-04-01T04:22:38;2.00;;;1.05;;
71202;SDS011;58929;47.490;19.090;2023-04-01T04:25:07;2.20;;;1.40;;
71202;SDS011;58929;47.490;19.090;2023-04-01T04:27:36;2.88;;;1.50;;
71202;SDS011;58929;47.490;19.090;2023-04-01T04:30:10;3.72;;;1.10;;
71202;SDS011;58929;47.490;19.090;2023-04-01T04:32:38;2.42;;;1.88;;
71202;SDS011;58929;47.490;19.090;2023-04-01T04:35:10;5.50;;;1.80;;
71202;SDS011;58929;47.490;19.090;2023-04-01T04:37:40;5.32;;;1.48;;
71202;SDS011;58929;47.490;19.090;2023-04-01T04:40:09;2.67;;;1.38;;
71202;SDS011;58929;47.490;19.090;2023-04-01T04:42:37;3.45;;;1.42;;
71202;SDS011;58929;47.490;19.090;2023-04-01T04:45:09;3.53;;;2.05;;
71202;SDS011;58929;47.490;19.090;2023-04-01T04:47:45;4.10;;;1.20;;
71202;SDS011;58929;47.490;19.090;2023-04-01T04:50:13;3.08;;;1.50;;
71202;SDS011;58929;47.490;19.090;2023-04-01T04:52:42;3.38;;;1.17;;
71202;SDS011;58929;47.490;19.090;2023-04-01T04:55:10;2.60;;;1.30;;
71202;SDS011;58929;47.490;19.090;2023-04-01T04:57:41;3.80;;;1.65;;
71202;SDS011;58929;47.490;19.090;2023-04-01T05:00:09;1.85;;;1.10;;
71202;SDS011;58929;47.490;19.090;2023-04-01T05:02:57;2.58;;;1.30;;
71202;SDS011;58929;47.490;19.090;2023-04-01T05:05:25;3.80;;;1.10;;
71202;SDS011;58929;47.490;19.090;2023-04-01T05:07:54;3.25;;;1.42;;
71202;SDS011;58929;47.490;19.090;2023-04-01T05:10:22;2.97;;;1.60;;
71202;SDS011;58929;47.490;19.090;2023-04-01T05:12:50;3.85;;;1.63;;
71202;SDS011;58929;47.490;19.090;2023-04-01T05:15:20;4.80;;;1.30;;
71202;SDS011;58929;47.490;19.090;2023-04-01T05:17:48;3.08;;;1.67;;
71202;SDS011;58929;47.490;19.090;2023-04-01T05:20:17;5.13;;;2.28;;
71202;SDS011;58929;47.490;19.090;2023-04-01T05:22:45;6.85;;;1.95;;
71202;SDS011;58929;47.490;19.090;2023-04-01T05:25:15;2.60;;;1.40;;
71202;SDS011;58929;47.490;19.090;2023-04-01T05:27:43;3.17;;;1.40;;
71202;SDS011;58929;47.490;19.090;2023-04-01T05:30:11;2.20;;;1.25;;
71202;SDS011;58929;47.490;19.090;2023-04-01T05:32:45;3.67;;;1.60;;
71202;SDS011;58929;47.490;19.090;2023-04-01T05:35:14;3.65;;;1.65;;
71202;SDS011;58929;47.490;19.090;2023-04-01T05:37:42;2.42;;;1.40;;
71202;SDS011;58929;47.490;19.090;2023-04-01T05:40:10;4.47;;;2.13;;
71202;SDS011;58929;47.490;19.090;2023-04-01T05:42:40;2.97;;;1.27;;
71202;SDS011;58929;47.490;19.090;2023-04-01T05:45:08;3.35;;;1.67;;
71202;SDS011;58929;47.490;19.090;2023-04-01T05:47:54;4.30;;;1.75;;
71202;SDS011;58929;47.490;19.090;2023-04-01T05:50:22;5.55;;;1.98;;
71202;SDS011;58929;47.490;19.090;2023-04-01T05:52:51;3.83;;;1.80;;
71202;SDS011;58929;47.490;19.090;2023-04-01T05:55:19;4.00;;;1.60;;
71202;SDS011;58929;47.490;19.090;2023-04-01T05:57:50;2.67;;;1.33;;
71202;SDS011;58929;47.490;19.090;2023-04-01T06:00:18;4.65;;;1.48;;
71202;SDS011;58929;47.490;19.090;2023-04-01T06:02:47;3.35;;;1.45;;
71202;SDS011;58929;47.490;19.090;2023-04-01T06:05:17;3.70;;;1.60;;
71202;SDS011;58929;47.490;19.090;2023-04-01T06:07:45;3.50;;;1.60;;
71202;SDS011;58929;47.490;19.090;2023-04-01T06:10:15;4.43;;;1.40;;
71202;SDS011;58929;47.490;19.090;2023-04-01T06:12:45;3.80;;;2.03;;
71202;SDS011;58929;47.490;19.090;2023-04-01T06:15:23;4.07;;;1.40;;
71202;SDS011;58929;47.490;19.090;2023-04-01T06:18:03;4.18;;;1.45;;
71202;SDS011;58929;47.490;19.090;2023-04-01T06:20:37;1.95;;;1.23;;
71202;SDS011;58929;47.490;19.090;2023-04-01T06:23:10;2.53;;;1.40;;
71202;SDS011;58929;47.490;19.090;2023-04-01T06:25:59;5.22;;;1.70;;
71202;SDS011;58929;47.490;19.090;2023-04-01T06:31:20;6.40;;;2.85;;
71202;SDS011;58929;47.490;19.090;2023-04-01T06:34:01;3.38;;;2.22;;
71202;SDS011;58929;47.490;19.090;2023-04-01T06:36:45;3.55;;;1.23;;
71202;SDS011;58929;47.490;19.090;2023-04-01T06:39:31;6.40;;;1.20;;
71202;SDS011;58929;47.490;19.090;2023-04-01T06:42:14;2.58;;;1.27;;
71202;SDS011;58929;47.490;19.090;2023-04-01T06:44:49;4.03;;;1.17;;
71202;SDS011;58929;47.490;19.090;2023-04-01T06:47:41;1.95;;;1.00;;
71202;SDS011;58929;47.490;19.090;2023-04-01T06:50:53;4.65;;;1.52;;
71202;SDS011;58929;47.490;19.090;2023-04-01T06:53:56;4.82;;;1.52;;
71202;SDS011;58929;47.490;19.090;2023-04-01T06:56:48;2.53;;;1.10;;
71202;SDS011;58929;47.490;19.090;2023-04-01T06:59:22;2.60;;;1.35;;
71202;SDS011;58929;47.490;19.090;2023-04-01T07:01:52;3.22;;;1.15;;
71202;SDS011;58929;47.490;19.090;2023-04-01T07:04:23;3.50;;;1.30;;
71202;SDS011;58929;47.490;19.090;2023-04-01T07:06:53;4.00;;;1.42;;
71202;SDS011;58929;47.490;19.090;2023-04-01T07:09:22;2.85;;;1.45;;
71202;SDS011;58929;47.490;19.090;2023-04-01T07:12:26;2.30;;;1.27;;
71202;SDS011;58929;47.490;19.090;2023-04-01T07:15:18;3.45;;;1.48;;
71202;SDS011;58929;47.490;19.090;2023-04-01T07:17:49;2.88;;;1.30;;
71202;SDS011;58929;47.490;19.090;2023-04-01T07:20:24;4.82;;;1.55;;
71202;SDS011;58929;47.490;19.090;2023-04-01T07:22:54;6.70;;;1.75;;
71202;SDS011;58929;47.490;19.090;2023-04-01T07:25:30;4.32;;;1.70;;
71202;SDS011;58929;47.490;19.090;2023-04-01T07:28:29;3.67;;;1.67;;
71202;SDS011;58929;47.490;19.090;2023-04-01T07:31:07;9.68;;;2.22;;
71202;SDS011;58929;47.490;19.090;2023-04-01T07:33:42;3.17;;;1.75;;
71202;SDS011;58929;47.490;19.090;2023-04-01T07:36:14;4.70;;;1.35;;
71202;SDS011;58929;47.490;19.090;2023-04-01T07:38:48;5.65;;;1.33;;
71202;SDS011;58929;47.490;19.090;2023-04-01T07:41:38;6.13;;;0.93;;
71202;SDS011;58929;47.490;19.090;2023-04-01T07:44:10;6.45;;;1.65;;
71202;SDS011;58929;47.490;19.090;2023-04-01T07:46:48;3.95;;;1.30;;
71202;SDS011;58929;47.490;19.090;2023-04-01T07:49:17;3.00;;;1.55;;
71202;SDS011;58929;47.490;19.090;2023-04-01T07:51:50;5.50;;;1.90;;
71202;SDS011;58929;47.490;19.090;2023-04-01T07:54:22;8.68;;;1.48;;
71202;SDS011;58929;47.490;19.090;2023-04-01T07:56:55;5.15;;;1.42;;
71202;SDS011;58929;47.490;19.090;2023-04-01T07:59:43;2.97;;;1.98;;
71202;SDS011;58929;47.490;19.090;2023-04-01T08:02:37;4.18;;;1.27;;
71202;SDS011;58929;47.490;19.090;2023-04-01T08:05:11;3.88;;;1.30;;
71202;SDS011;58929;47.490;19.090;2023-04-01T08:07:44;4.30;;;1.25;;
71202;SDS011;58929;47.490;19.090;2023-04-01T08:10:33;2.10;;;1.05;;
71202;SDS011;58929;47.490;19.090;2023-04-01T08:13:24;5.68;;;1.52;;
71202;SDS011;58929;47.490;19.090;2023-04-01T08:16:09;2.47;;;1.10;;
71202;SDS011;58929;47.490;19.090;2023-04-01T08:18:47;2.05;;;1.13;;
71202;SDS011;58929;47.490;19.090;2023-04-01T08:21:19;2.58;;;1.27;;
71202;SDS011;58929;47.490;19.090;2023-04-01T08:23:51;6.85;;;1.33;;
71202;SDS011;58929;47.490;19.090;2023-04-01T08:26:22;6.10;;;1.15;;
71202;SDS011;58929;47.490;19.090;2023-04-01T08:28:52;3.88;;;1.23;;
71202;SDS011;58929;47.490;19.090;2023-04-01T08:31:24;2.25;;;1.15;;
71202;SDS011;58929;47.490;19.090;2023-04-01T08:33:56;4.13;;;1.77;;
71202;SDS011;58929;47.490;19.090;2023-04-01T08:36:24;2.60;;;1.20;;
71202;SDS011;58929;47.490;19.090;2023-04-01T08:39:10;2.22;;;1.02;;
71202;SDS011;58929;47.490;19.090;2023-04-01T08:44:46;2.85;;;1.10;;
71202;SDS011;58929;47.490;19.090;2023-04-01T08:47:40;2.40;;;1.00;;
71202;SDS011;58929;47.490;19.090;2023-04-01T08:50:31;3.08;;;1.35;;
71202;SDS011;58929;47.490;19.090;2023-04-01T08:53:14;1.35;;;0.98;;
71202;SDS011;58929;47.490;19.090;2023-04-01T08:55:54;4.40;;;1.60;;
71202;SDS011;58929;47.490;19.090;2023-04-01T09:04:38;3.72;;;1.25;;
71202;SDS011;58929;47.490;19.090;2023-04-01T09:07:16;2.83;;;1.40;;
71202;SDS011;58929;47.490;19.090;2023-04-01T09:12:52;2.40;;;1.20;;
71202;SDS011;58929;47.490;19.090;2023-04-01T09:15:34;4.35;;;1.38;;
71202;SDS011;58929;47.490;19.090;2023-04-01T09:18:09;3.50;;;1.30;;
71202;SDS011;58929;47.490;19.090;2023-04-01T09:20:45;7.13;;;3.33;;
71202;SDS011;58929;47.490;19.090;2023-04-01T09:23:26;2.63;;;1.42;;
71202;SDS011;58929;47.490;19.090;2023-04-01T09:25:59;2.83;;;1.80;;
71202;SDS011;58929;47.490;19.090;2023-04-01T09:28:37;4.57;;;1.38;;
71202;SDS011;58929;47.490;19.090;2023-04-01T09:31:09;2.55;;;1.35;;
71202;SDS011;58929;47.490;19.090;2023-04-01T09:36:59;4.10;;;1.52;;
71202;SDS011;58929;47.490;19.090;2023-04-01T09:39:35;3.63;;;1.65;;
71202;SDS011;58929;47.490;19.090;2023-04-01T09:42:24;3.83;;;1.20;;
71202;SDS011;58929;47.490;19.090;2023-04-01T09:45:14;5.22;;;1.85;;
71202;SDS011;58929;47.490;19.090;2023-04-01T09:47:50;4.78;;;1.75;;
71202;SDS011;58929;47.490;19.090;2023-04-01T09:50:28;8.20;;;1.52;;
71202;SDS011;58929;47.490;19.090;2023-04-01T09:53:00;3.90;;;1.55;;
71202;SDS011;58929;47.490;19.090;2023-04-01T09:55:47;2.85;;;1.42;;
71202;SDS011;58929;47.490;19.090;2023-04-01T10:01:35;2.88;;;1.40;;
71202;SDS011;58929;47.490;19.090;2023-04-01T10:07:04;3.10;;;1.40;;
71202;SDS011;58929;47.490;19.090;2023-04-01T10:12:30;3.83;;;1.85;;
71202;SDS011;58929;47.490;19.090;2023-04-01T10:15:08;3.38;;;1.73;;
71202;SDS011;58929;47.490;19.090;2023-04-01T10:20:38;4.78;;;1.60;;
71202;SDS011;58929;47.490;19.090;2023-04-01T10:23:25;4.97;;;1.58;;
71202;SDS011;58929;47.490;19.090;2023-04-01T10:32:07;4.88;;;2.08;;
71202;SDS011;58929;47.490;19.090;2023-04-01T10:37:32;7.00;;;1.98;;
71202;SDS011;58929;47.490;19.090;2023-04-01T10:40:20;5.70;;;2.05;;
71202;SDS011;58929;47.490;19.090;2023-04-01T10:48:51;5.50;;;2.33;;
71202;SDS011;58929;47.490;19.090;2023-04-01T10:51:35;6.82;;;2.03;;
71202;SDS011;58929;47.490;19.090;2023-04-01T10:54:35;4.18;;;1.90;;
71202;SDS011;58929;47.490;19.090;2023-04-01T10:57:46;6.72;;;1.73;;
71202;SDS011;58929;47.490;19.090;2023-04-01T11:00:57;4.90;;;1.52;;
71202;SDS011;58929;47.490;19.090;2023-04-01T11:15:31;5.50;;;2.03;;
71202;SDS011;58929;47.490;19.090;2023-04-01T11:18:17;5.30;;;1.92;;
71202;SDS011;58929;47.490;19.090;2023-04-01T11:23:55;5.05;;;2.25;;
71202;SDS011;58929;47.490;19.090;2023-04-01T11:26:44;5.38;;;1.58;;
71202;SDS011;58929;47.490;19.090;2023-04-01T11:29:46;2.75;;;1.20;;
71202;SDS011;58929;47.490;19.090;2023-04-01T11:32:43;5.78;;;1.00;;
71202;SDS011;58929;47.490;19.090;2023-04-01T11:38:18;5.95;;;1.42;;
71202;SDS011;58929;47.490;19.090;2023-04-01T11:40:48;4.95;;;1.33;;
71202;SDS011;58929;47.490;19.090;2023-04-01T11:43:38;4.15;;;1.48;;
71202;SDS011;58929;47.490;19.090;2023-04-01T11:46:23;5.18;;;1.67;;
71202;SDS011;58929;47.490;19.090;2023-04-01T11:48:56;3.95;;;1.27;;
71202;SDS011;58929;47.490;19.090;2023-04-01T11:51:30;4.43;;;1.20;;
71202;SDS011;58929;47.490;19.090;2023-04-01T11:54:03;8.35;;;1.50;;
71202;SDS011;58929;47.490;19.090;2023-04-01T11:56:38;5.53;;;1.30;;
71202;SDS011;58929;47.490;19.090;2023-04-01T11:59:13;4.15;;;1.30;;
71202;SDS011;58929;47.490;19.090;2023-04-01T12:01:50;2.83;;;1.17;;
71202;SDS011;58929;47.490;19.090;2023-04-01T12:04:30;8.32;;;2.35;;
71202;SDS011;58929;47.490;19.090;2023-04-01T12:07:06;3.25;;;1.15;;
71202;SDS011;58929;47.490;19.090;2023-04-01T12:09:38;8.18;;;1.40;;
71202;SDS011;58929;47.490;19.090;2023-04-01T12:12:14;5.72;;;1.95;;
71202;SDS011;58929;47.490;19.090;2023-04-01T12:14:47;4.25;;;1.42;;
71202;SDS011;58929;47.490;19.090;2023-04-01T12:17:21;12.45;;;2.28;;
71202;SDS011;58929;47.490;19.090;2023-04-01T12:19:56;3.40;;;1.38;;
71202;SDS011;58929;47.490;19.090;2023-04-01T12:22:29;3.85;;;1.35;;
71202;SDS011;58929;47.490;19.090;2023-04-01T12:25:03;4.15;;;1.30;;
71202;SDS011;58929;47.490;19.090;2023-04-01T12:27:38;4.15;;;1.13;;
71202;SDS011;58929;47.490;19.090;2023-04-01T12:33:04;5.25;;;1.00;;
71202;SDS011;58929;47.490;19.090;2023-04-01T12:35:43;5.47;;;1.90;;
71202;SDS011;58929;47.490;19.090;2023-04-01T12:38:20;4.93;;;1.60;;
71202;SDS011;58929;47.490;19.090;2023-04-01T12:40:56;3.08;;;1.60;;
71202;SDS011;58929;47.490;19.090;2023-04-01T12:46:30;4.93;;;1.80;;
71202;SDS011;58929;47.490;19.090;2023-04-01T12:49:03;5.85;;;1.65;;
71202;SDS011;58929;47.490;19.090;2023-04-01T12:51:48;3.63;;;1.48;;
71202;SDS011;58929;47.490;19.090;2023-04-01T12:57:10;5.13;;;1.60;;
71202;SDS011;58929;47.490;19.090;2023-04-01T12:59:49;4.22;;;1.73;;
71202;SDS011;58929;47.490;19.090;2023-04-01T13:02:25;5.07;;;1.70;;
71202;SDS011;58929;47.490;19.090;2023-04-01T13:05:00;1.50;;;1.17;;
71202;SDS011;58929;47.490;19.090;2023-04-01T13:07:48;4.32;;;1.58;;
71202;SDS011;58929;47.490;19.090;2023-04-01T13:10:20;5.00;;;1.80;;
71202;SDS011;58929;47.490;19.090;2023-04-01T13:13:07;2.55;;;1.48;;
71202;SDS011;58929;47.490;19.090;2023-04-01T13:15:40;4.00;;;1.63;;
71202;SDS011;58929;47.490;19.090;2023-04-01T13:18:16;3.60;;;1.58;;
71202;SDS011;58929;47.490;19.090;2023-04-01T13:20:49;4.43;;;1.73;;
71202;SDS011;58929;47.490;19.090;2023-04-01T13:23:32;2.85;;;1.40;;
71202;SDS011;58929;47.490;19.090;2023-04-01T13:26:04;5.93;;;1.13;;
71202;SDS011;58929;47.490;19.090;2023-04-01T13:28:42;2.10;;;1.15;;
71202;SDS011;58929;47.490;19.090;2023-04-01T13:31:14;3.33;;;1.42;;
71202;SDS011;58929;47.490;19.090;2023-04-01T13:33:50;4.13;;;1.80;;
71202;SDS011;58929;47.490;19.090;2023-04-01T13:36:26;3.20;;;1.15;;
71202;SDS011;58929;47.490;19.090;2023-04-01T13:39:01;1.52;;;0.95;;
71202;SDS011;58929;47.490;19.090;2023-04-01T13:41:48;4.05;;;1.15;;
71202;SDS011;58929;47.490;19.090;2023-04-01T13:44:22;3.60;;;1.17;;
71202;SDS011;58929;47.490;19.090;2023-04-01T13:47:02;2.95;;;1.20;;
71202;SDS011;58929;47.490;19.090;2023-04-01T13:49:37;2.95;;;1.30;;
71202;SDS011;58929;47.490;19.090;2023-04-01T13:57:51;1.83;;;1.17;;
71202;SDS011;58929;47.490;19.090;2023-04-01T14:00:30;5.82;;;1.30;;
71202;SDS011;58929;47.490;19.090;2023-04-01T14:03:04;2.70;;;1.42;;
71202;SDS011;58929;47.490;19.090;2023-04-01T14:08:13;3.92;;;1.15;;
71202;SDS011;58929;47.490;19.090;2023-04-01T14:10:43;4.07;;;1.30;;
71202;SDS011;58929;47.490;19.090;2023-04-01T14:13:15;3.58;;;1.13;;
71202;SDS011;58929;47.490;19.090;2023-04-01T14:15:50;2.05;;;1.15;;
71202;SDS011;58929;47.490;19.090;2023-04-01T14:21:07;1.63;;;0.85;;
71202;SDS011;58929;47.490;19.090;2023-04-01T14:23:42;3.05;;;0.82;;
71202;SDS011;58929;47.490;19.090;2023-04-01T14:26:22;1.58;;;0.52;;
71202;SDS011;58929;47.490;19.090;2023-04-01T14:28:58;3.20;;;1.70;;
71202;SDS011;58929;47.490;19.090;2023-04-01T14:31:42;1.45;;;0.85;;
71202;SDS011;58929;47.490;19.090;2023-04-01T14:34:29;1.98;;;0.85;;
71202;SDS011;58929;47.490;19.090;2023-04-01T14:42:41;2.83;;;1.23;;
71202;SDS011;58929;47.490;19.090;2023-04-01T14:45:19;2.93;;;1.20;;
71202;SDS011;58929;47.490;19.090;2023-04-01T14:47:54;1.67;;;0.93;;
71202;SDS011;58929;47.490;19.090;2023-04-01T14:50:25;2.05;;;1.00;;
71202;SDS011;58929;47.490;19.090;2023-04-01T14:52:57;1.88;;;0.90;;
71202;SDS011;58929;47.490;19.090;2023-04-01T14:55:27;4.30;;;1.27;;
71202;SDS011;58929;47.490;19.090;2023-04-01T14:57:57;3.72;;;1.23;;
71202;SDS011;58929;47.490;19.090;2023-04-01T15:00:27;4.53;;;1.35;;
71202;SDS011;58929;47.490;19.090;2023-04-01T15:03:07;3.20;;;1.50;;
71202;SDS011;58929;47.490;19.090;2023-04-01T15:05:39;2.63;;;1.20;;
71202;SDS011;58929;47.490;19.090;2023-04-01T15:08:14;3.75;;;1.50;;
71202;SDS011;58929;47.490;19.090;2023-04-01T15:10:49;2.95;;;1.40;;
71202;SDS011;58929;47.490;19.090;2023-04-01T15:13:24;5.00;;;1.60;;
71202;SDS011;58929;47.490;19.090;2023-04-01T15:16:03;2.03;;;1.23;;
71202;SDS011;58929;47.490;19.090;2023-04-01T15:18:35;3.92;;;1.10;;
71202;SDS011;58929;47.490;19.090;2023-04-01T15:21:10;3.35;;;1.33;;
71202;SDS011;58929;47.490;19.090;2023-04-01T15:23:43;2.10;;;1.50;;
71202;SDS011;58929;47.490;19.090;2023-04-01T15:26:14;4.15;;;1.92;;
71202;SDS011;58929;47.490;19.090;2023-04-01T15:28:49;2.95;;;1.40;;
71202;SDS011;58929;47.490;19.090;2023-04-01T15:31:21;7.85;;;1.50;;
71202;SDS011;58929;47.490;19.090;2023-04-01T15:33:55;3.40;;;1.08;;
71202;SDS011;58929;47.490;19.090;2023-04-01T15:36:30;2.53;;;1.30;;
71202;SDS011;58929;47.490;19.090;2023-04-01T15:39:03;1.73;;;1.08;;
71202;SDS011;58929;47.490;19.090;2023-04-01T15:41:35;1.80;;;1.27;;
71202;SDS011;58929;47.490;19.090;2023-04-01T15:44:24;4.25;;;1.30;;
71202;SDS011;58929;47.490;19.090;2023-04-01T15:46:55;2.13;;;0.95;;
71202;SDS011;58929;47.490;19.090;2023-04-01T15:49:28;3.25;;;1.63;;
71202;SDS011;58929;47.490;19.090;2023-04-01T15:52:06;2.55;;;1.30;;
71202;SDS011;58929;47.490;19.090;2023-04-01T15:54:47;4.93;;;2.55;;
71202;SDS011;58929;47.490;19.090;2023-04-01T15:57:23;3.33;;;1.40;;
71202;SDS011;58929;47.490;19.090;2023-04-01T16:02:45;2.78;;;1.17;;
71202;SDS011;58929;47.490;19.090;2023-04-01T16:05:25;2.75;;;1.02;;
71202;SDS011;58929;47.490;19.090;2023-04-01T16:07:58;3.15;;;1.60;;
71202;SDS011;58929;47.490;19.090;2023-04-01T16:10:32;2.05;;;1.00;;
71202;SDS011;58929;47.490;19.090;2023-04-01T16:13:12;2.13;;;1.08;;
71202;SDS011;58929;47.490;19.090;2023-04-01T16:15:44;3.50;;;1.10;;
71202;SDS011;58929;47.490;19.090;2023-04-01T16:18:24;1.77;;;0.98;;
71202;SDS011;58929;47.490;19.090;2023-04-01T16:20:55;2.08;;;1.45;;
71202;SDS011;58929;47.490;19.090;2023-04-01T16:23:26;5.07;;;1.40;;
71202;SDS011;58929;47.490;19.090;2023-04-01T16:26:01;3.85;;;1.25;;
71202;SDS011;58929;47.490;19.090;2023-04-01T16:28:31;2.35;;;1.15;;
71202;SDS011;58929;47.490;19.090;2023-04-01T16:31:04;1.60;;;0.90;;
71202;SDS011;58929;47.490;19.090;2023-04-01T16:33:40;2.75;;;0.90;;
71202;SDS011;58929;47.490;19.090;2023-04-01T16:36:10;2.30;;;1.27;;
71202;SDS011;58929;47.490;19.090;2023-04-01T16:38:41;4.28;;;1.30;;
71202;SDS011;58929;47.490;19.090;2023-04-01T16:41:11;3.90;;;1.10;;
71202;SDS011;58929;47.490;19.090;2023-04-01T16:43:42;1.35;;;0.70;;
71202;SDS011;58929;47.490;19.090;2023-04-01T16:46:31;2.17;;;0.95;;
71202;SDS011;58929;47.490;19.090;2023-04-01T16:49:04;3.85;;;0.90;;
71202;SDS011;58929;47.490;19.090;2023-04-01T16:51:44;2.60;;;0.95;;